sensor_id;sensor_type;location;lat;lon;timestamp;P1;durP1;ratioP1;P2;durP2;ratioP2
51792;SDS011;37850;53.178;6.376;2023-05-10T00:01:07;13.55;;;8.63;;
51792;SDS011;37850;53.178;6.376;2023-05-10T00:03:33;11.48;;;8.23;;
51792;SDS011;37850;53.178;6.376;2023-05-10T00:05:58;12.27;;;8.88;;
51792;SDS011;37850;53.178;6.376;2023-05-10T00:08:24;10.95;;;8.43;;
51792;SDS011;37850;53.178;6.376;2023-05-10T00:10:53;9.80;;;7.90;;
51792;SDS011;37850;53.178;6.376;2023-05-10T00:13:19;13.02;;;8.20;;
51792;SDS011;37850;53.178;6.376;2023-05-10T00:15:44;11.00;;;8.00;;
51792;SDS011;37850;53.178;6.376;2023-05-10T00:18:10;10.98;;;7.60;;
51792;SDS011;37850;53.178;6.376;2023-05-10T00:20:36;11.07;;;7.32;;
51792;SDS011;37850;53.178;6.376;2023-05-10T00:23:02;10.70;;;7.43;;
51792;SDS011;37850;53.178;6.376;2023-05-10T00:25:28;11.52;;;7.90;;
51792;SDS011;37850;53.178;6.376;2023-05-10T00:27:53;11.93;;;7.10;;
51792;SDS011;37850;53.178;6.376;2023-05-10T00:30:22;9.32;;;7.25;;
51792;SDS011;37850;53.178;6.376;2023-05-10T00:32:48;9.65;;;7.03;;
51792;SDS011;37850;53.178;6.376;2023-05-10T00:35:15;9.50;;;6.95;;
51792;SDS011;37850;53.178;6.376;2023-05-10T00:37:41;9.70;;;7.18;;
51792;SDS011;37850;53.178;6.376;2023-05-10T00:40:07;9.13;;;6.55;;
51792;SDS011;37850;53.178;6.376;2023-05-10T00:42:33;9.13;;;6.55;;
51792;SDS011;37850;53.178;6.376;2023-05-10T00:44:59;8.55;;;6.50;;
51792;SDS011;37850;53.178;6.376;2023-05-10T00:47:24;9.82;;;7.53;;
51792;SDS011;37850;53.178;6.376;2023-05-10T00:49:50;11.45;;;8.05;;
51792;SDS011;37850;53.178;6.376;2023-05-10T00:52:17;10.02;;;7.75;;
51792;SDS011;37850;53.178;6.376;2023-05-10T00:54:42;10.80;;;7.57;;
51792;SDS011;37850;53.178;6.376;2023-05-10T00:57:08;9.82;;;7.55;;
51792;SDS011;37850;53.178;6.376;2023-05-10T00:59:34;10.15;;;7.72;;
51792;SDS011;37850;53.178;6.376;2023-05-10T01:02:00;11.32;;;8.50;;
51792;SDS011;37850;53.178;6.376;2023-05-10T01:04:26;10.52;;;7.88;;
51792;SDS011;37850;53.178;6.376;2023-05-10T01:06:53;11.95;;;7.95;;
51792;SDS011;37850;53.178;6.376;2023-05-10T01:09:19;10.88;;;7.88;;
51792;SDS011;37850;53.178;6.376;2023-05-10T01:11:46;10.98;;;7.75;;
51792;SDS011;37850;53.178;6.376;2023-05-10T01:14:13;10.70;;;7.85;;
51792;SDS011;37850;53.178;6.376;2023-05-10T01:16:42;9.73;;;7.50;;
51792;SDS011;37850;53.178;6.376;2023-05-10T01:19:22;12.63;;;6.82;;
51792;SDS011;37850;53.178;6.376;2023-05-10T01:27:55;9.55;;;6.70;;
51792;SDS011;37850;53.178;6.376;2023-05-10T01:33:30;9.13;;;6.88;;
51792;SDS011;37850;53.178;6.376;2023-05-10T01:36:22;8.65;;;6.47;;
51792;SDS011;37850;53.178;6.376;2023-05-10T01:42:10;8.65;;;5.93;;
51792;SDS011;37850;53.178;6.376;2023-05-10T01:47:37;7.30;;;5.90;;
51792;SDS011;37850;53.178;6.376;2023-05-10T01:52:41;8.73;;;6.68;;
51792;SDS011;37850;53.178;6.376;2023-05-10T01:55:14;9.85;;;6.53;;
51792;SDS011;37850;53.178;6.376;2023-05-10T01:57:43;9.95;;;5.97;;
51792;SDS011;37850;53.178;6.376;2023-05-10T02:00:11;8.43;;;6.45;;
51792;SDS011;37850;53.178;6.376;2023-05-10T02:02:42;8.75;;;6.50;;
51792;SDS011;37850;53.178;6.376;2023-05-10T02:05:11;9.40;;;6.97;;
51792;SDS011;37850;53.178;6.376;2023-05-10T02:07:42;10.95;;;7.60;;
51792;SDS011;37850;53.178;6.376;2023-05-10T02:10:10;10.00;;;7.25;;
51792;SDS011;37850;53.178;6.376;2023-05-10T02:12:42;11.00;;;7.00;;
51792;SDS011;37850;53.178;6.376;2023-05-10T02:15:11;10.07;;;7.40;;
51792;SDS011;37850;53.178;6.376;2023-05-10T02:17:40;11.30;;;8.55;;
51792;SDS011;37850;53.178;6.376;2023-05-10T02:20:08;13.48;;;9.15;;
51792;SDS011;37850;53.178;6.376;2023-05-10T02:22:35;13.30;;;9.35;;
51792;SDS011;37850;53.178;6.376;2023-05-10T02:25:01;13.77;;;10.20;;
51792;SDS011;37850;53.178;6.376;2023-05-10T02:27:28;15.70;;;9.93;;
51792;SDS011;37850;53.178;6.376;2023-05-10T02:29:54;12.73;;;9.68;;
51792;SDS011;37850;53.178;6.376;2023-05-10T02:32:22;13.40;;;10.43;;
51792;SDS011;37850;53.178;6.376;2023-05-10T02:34:51;13.70;;;11.25;;
51792;SDS011;37850;53.178;6.376;2023-05-10T02:37:18;13.18;;;10.65;;
51792;SDS011;37850;53.178;6.376;2023-05-10T02:39:52;15.38;;;11.95;;
51792;SDS011;37850;53.178;6.376;2023-05-10T02:42:22;14.77;;;11.35;;
51792;SDS011;37850;53.178;6.376;2023-05-10T02:44:53;15.02;;;10.90;;
51792;SDS011;37850;53.178;6.376;2023-05-10T02:47:21;13.13;;;10.88;;
51792;SDS011;37850;53.178;6.376;2023-05-10T02:49:47;13.63;;;11.27;;
51792;SDS011;37850;53.178;6.376;2023-05-10T02:52:14;14.55;;;11.25;;
51792;SDS011;37850;53.178;6.376;2023-05-10T02:54:45;16.65;;;11.75;;
51792;SDS011;37850;53.178;6.376;2023-05-10T02:57:17;15.88;;;12.20;;
51792;SDS011;37850;53.178;6.376;2023-05-10T02:59:58;16.88;;;12.77;;
51792;SDS011;37850;53.178;6.376;2023-05-10T03:02:25;14.95;;;11.52;;
51792;SDS011;37850;53.178;6.376;2023-05-10T03:04:51;17.00;;;12.20;;
51792;SDS011;37850;53.178;6.376;2023-05-10T03:07:17;16.25;;;12.70;;
51792;SDS011;37850;53.178;6.376;2023-05-10T03:09:46;19.65;;;14.15;;
51792;SDS011;37850;53.178;6.376;2023-05-10T03:15:01;21.45;;;14.50;;
51792;SDS011;37850;53.178;6.376;2023-05-10T03:17:39;22.17;;;15.98;;
51792;SDS011;37850;53.178;6.376;2023-05-10T03:20:16;22.58;;;15.07;;
51792;SDS011;37850;53.178;6.376;2023-05-10T03:22:50;22.30;;;15.25;;
51792;SDS011;37850;53.178;6.376;2023-05-10T03:25:20;24.83;;;16.25;;
51792;SDS011;37850;53.178;6.376;2023-05-10T03:27:48;25.38;;;16.25;;
51792;SDS011;37850;53.178;6.376;2023-05-10T03:30:14;23.45;;;15.38;;
51792;SDS011;37850;53.178;6.376;2023-05-10T03:32:41;23.73;;;15.43;;
51792;SDS011;37850;53.178;6.376;2023-05-10T03:35:07;23.83;;;15.43;;
51792;SDS011;37850;53.178;6.376;2023-05-10T03:37:34;23.60;;;15.48;;
51792;SDS011;37850;53.178;6.376;2023-05-10T03:40:00;22.73;;;15.23;;
51792;SDS011;37850;53.178;6.376;2023-05-10T03:42:27;26.25;;;15.63;;
51792;SDS011;37850;53.178;6.376;2023-05-10T03:44:53;24.45;;;14.60;;
51792;SDS011;37850;53.178;6.376;2023-05-10T03:47:19;24.75;;;14.10;;
51792;SDS011;37850;53.178;6.376;2023-05-10T03:49:45;24.17;;;15.23;;
51792;SDS011;37850;53.178;6.376;2023-05-10T03:52:13;23.10;;;15.27;;
51792;SDS011;37850;53.178;6.376;2023-05-10T03:54:40;21.80;;;15.13;;
51792;SDS011;37850;53.178;6.376;2023-05-10T03:57:06;25.55;;;14.75;;
51792;SDS011;37850;53.178;6.376;2023-05-10T03:59:34;21.05;;;13.98;;
51792;SDS011;37850;53.178;6.376;2023-05-10T04:02:00;23.13;;;13.70;;
51792;SDS011;37850;53.178;6.376;2023-05-10T04:04:26;20.92;;;12.52;;
51792;SDS011;37850;53.178;6.376;2023-05-10T04:06:52;16.58;;;10.95;;
51792;SDS011;37850;53.178;6.376;2023-05-10T04:09:18;14.85;;;8.82;;
51792;SDS011;37850;53.178;6.376;2023-05-10T04:11:43;10.32;;;6.63;;
51792;SDS011;37850;53.178;6.376;2023-05-10T04:14:12;8.65;;;5.18;;
51792;SDS011;37850;53.178;6.376;2023-05-10T04:16:38;9.38;;;5.47;;
51792;SDS011;37850;53.178;6.376;2023-05-10T04:19:03;10.65;;;5.25;;
51792;SDS011;37850;53.178;6.376;2023-05-10T04:21:29;7.03;;;4.15;;
51792;SDS011;37850;53.178;6.376;2023-05-10T04:23:55;6.30;;;3.47;;
51792;SDS011;37850;53.178;6.376;2023-05-10T04:26:21;7.03;;;3.03;;
51792;SDS011;37850;53.178;6.376;2023-05-10T04:28:47;6.68;;;3.33;;
51792;SDS011;37850;53.178;6.376;2023-05-10T04:31:15;7.80;;;3.20;;
51792;SDS011;37850;53.178;6.376;2023-05-10T04:33:41;10.20;;;3.50;;
51792;SDS011;37850;53.178;6.376;2023-05-10T04:36:07;7.05;;;3.75;;
51792;SDS011;37850;53.178;6.376;2023-05-10T04:38:33;6.25;;;3.42;;
51792;SDS011;37850;53.178;6.376;2023-05-10T04:41:08;5.88;;;3.22;;
51792;SDS011;37850;53.178;6.376;2023-05-10T04:43:35;7.95;;;3.67;;
51792;SDS011;37850;53.178;6.376;2023-05-10T04:46:01;8.27;;;4.00;;
51792;SDS011;37850;53.178;6.376;2023-05-10T04:48:27;7.25;;;4.13;;
51792;SDS011;37850;53.178;6.376;2023-05-10T04:50:53;8.35;;;4.78;;
51792;SDS011;37850;53.178;6.376;2023-05-10T04:53:19;9.63;;;4.65;;
51792;SDS011;37850;53.178;6.376;2023-05-10T04:55:45;7.72;;;4.55;;
51792;SDS011;37850;53.178;6.376;2023-05-10T04:58:11;10.52;;;5.10;;
51792;SDS011;37850;53.178;6.376;2023-05-10T05:00:37;9.75;;;5.15;;
51792;SDS011;37850;53.178;6.376;2023-05-10T05:03:03;9.88;;;4.95;;
51792;SDS011;37850;53.178;6.376;2023-05-10T05:05:29;8.35;;;5.10;;
51792;SDS011;37850;53.178;6.376;2023-05-10T05:07:55;12.95;;;5.75;;
51792;SDS011;37850;53.178;6.376;2023-05-10T05:10:21;10.65;;;5.22;;
51792;SDS011;37850;53.178;6.376;2023-05-10T05:12:47;9.88;;;5.80;;
51792;SDS011;37850;53.178;6.376;2023-05-10T05:15:12;9.02;;;5.40;;
51792;SDS011;37850;53.178;6.376;2023-05-10T05:17:38;9.77;;;5.30;;
51792;SDS011;37850;53.178;6.376;2023-05-10T05:20:04;12.23;;;5.70;;
51792;SDS011;37850;53.178;6.376;2023-05-10T05:22:30;9.82;;;6.05;;
51792;SDS011;37850;53.178;6.376;2023-05-10T05:24:56;10.13;;;5.93;;
51792;SDS011;37850;53.178;6.376;2023-05-10T05:27:23;10.30;;;5.88;;
51792;SDS011;37850;53.178;6.376;2023-05-10T05:29:54;11.50;;;6.07;;
51792;SDS011;37850;53.178;6.376;2023-05-10T05:32:21;9.35;;;5.53;;
51792;SDS011;37850;53.178;6.376;2023-05-10T05:34:47;8.80;;;5.32;;
51792;SDS011;37850;53.178;6.376;2023-05-10T05:37:15;10.18;;;5.65;;
51792;SDS011;37850;53.178;6.376;2023-05-10T05:39:42;12.15;;;6.38;;
51792;SDS011;37850;53.178;6.376;2023-05-10T05:42:08;12.60;;;5.50;;
51792;SDS011;37850;53.178;6.376;2023-05-10T05:44:34;9.82;;;5.50;;
51792;SDS011;37850;53.178;6.376;2023-05-10T05:47:00;9.88;;;5.25;;
51792;SDS011;37850;53.178;6.376;2023-05-10T05:49:26;11.23;;;6.63;;
51792;SDS011;37850;53.178;6.376;2023-05-10T05:51:52;11.18;;;5.72;;
51792;SDS011;37850;53.178;6.376;2023-05-10T05:54:18;10.63;;;6.18;;
51792;SDS011;37850;53.178;6.376;2023-05-10T05:56:43;10.45;;;6.47;;
51792;SDS011;37850;53.178;6.376;2023-05-10T05:59:12;10.15;;;6.07;;
51792;SDS011;37850;53.178;6.376;2023-05-10T06:01:38;13.05;;;6.30;;
51792;SDS011;37850;53.178;6.376;2023-05-10T06:04:04;12.75;;;7.95;;
51792;SDS011;37850;53.178;6.376;2023-05-10T06:06:29;16.08;;;8.65;;
51792;SDS011;37850;53.178;6.376;2023-05-10T06:08:55;17.60;;;10.85;;
51792;SDS011;37850;53.178;6.376;2023-05-10T06:11:21;19.40;;;11.13;;
51792;SDS011;37850;53.178;6.376;2023-05-10T06:13:47;19.95;;;10.93;;
51792;SDS011;37850;53.178;6.376;2023-05-10T06:16:13;19.60;;;12.15;;
51792;SDS011;37850;53.178;6.376;2023-05-10T06:18:38;22.60;;;13.13;;
51792;SDS011;37850;53.178;6.376;2023-05-10T06:21:04;17.00;;;10.90;;
51792;SDS011;37850;53.178;6.376;2023-05-10T06:23:30;15.85;;;11.13;;
51792;SDS011;37850;53.178;6.376;2023-05-10T06:25:56;18.05;;;11.93;;
51792;SDS011;37850;53.178;6.376;2023-05-10T06:28:21;17.77;;;11.48;;
51792;SDS011;37850;53.178;6.376;2023-05-10T06:30:47;15.48;;;10.50;;
51792;SDS011;37850;53.178;6.376;2023-05-10T06:33:13;13.50;;;8.77;;
51792;SDS011;37850;53.178;6.376;2023-05-10T06:35:39;12.48;;;7.00;;
51792;SDS011;37850;53.178;6.376;2023-05-10T06:38:05;9.15;;;5.25;;
51792;SDS011;37850;53.178;6.376;2023-05-10T06:40:31;9.38;;;4.45;;
51792;SDS011;37850;53.178;6.376;2023-05-10T06:42:57;7.18;;;3.85;;
51792;SDS011;37850;53.178;6.376;2023-05-10T06:45:24;10.40;;;3.60;;
51792;SDS011;37850;53.178;6.376;2023-05-10T06:47:50;5.85;;;3.35;;
51792;SDS011;37850;53.178;6.376;2023-05-10T06:50:16;5.90;;;2.92;;
51792;SDS011;37850;53.178;6.376;2023-05-10T06:52:41;4.38;;;2.38;;
51792;SDS011;37850;53.178;6.376;2023-05-10T06:55:07;4.60;;;2.33;;
51792;SDS011;37850;53.178;6.376;2023-05-10T06:57:34;4.72;;;2.42;;
51792;SDS011;37850;53.178;6.376;2023-05-10T07:00:00;5.80;;;2.88;;
51792;SDS011;37850;53.178;6.376;2023-05-10T07:02:26;4.90;;;2.88;;
51792;SDS011;37850;53.178;6.376;2023-05-10T07:04:52;5.45;;;2.75;;
51792;SDS011;37850;53.178;6.376;2023-05-10T07:07:18;5.28;;;2.70;;
51792;SDS011;37850;53.178;6.376;2023-05-10T07:09:44;5.35;;;2.80;;
51792;SDS011;37850;53.178;6.376;2023-05-10T07:12:11;4.90;;;2.70;;
51792;SDS011;37850;53.178;6.376;2023-05-10T07:14:36;6.13;;;3.05;;
51792;SDS011;37850;53.178;6.376;2023-05-10T07:17:02;5.75;;;3.28;;
51792;SDS011;37850;53.178;6.376;2023-05-10T07:19:28;5.47;;;3.45;;
51792;SDS011;37850;53.178;6.376;2023-05-10T07:21:54;5.68;;;3.58;;
51792;SDS011;37850;53.178;6.376;2023-05-10T07:24:20;6.90;;;3.42;;
51792;SDS011;37850;53.178;6.376;2023-05-10T07:26:46;5.82;;;3.20;;
51792;SDS011;37850;53.178;6.376;2023-05-10T07:29:12;6.60;;;3.90;;
51792;SDS011;37850;53.178;6.376;2023-05-10T07:31:37;5.38;;;3.25;;
51792;SDS011;37850;53.178;6.376;2023-05-10T07:34:03;5.43;;;3.40;;
51792;SDS011;37850;53.178;6.376;2023-05-10T07:36:31;5.57;;;3.20;;
51792;SDS011;37850;53.178;6.376;2023-05-10T07:41:28;6.05;;;3.35;;
51792;SDS011;37850;53.178;6.376;2023-05-10T07:43:54;5.85;;;3.22;;
51792;SDS011;37850;53.178;6.376;2023-05-10T07:46:20;6.95;;;3.58;;
51792;SDS011;37850;53.178;6.376;2023-05-10T07:48:46;5.70;;;3.50;;
51792;SDS011;37850;53.178;6.376;2023-05-10T07:51:12;7.15;;;3.60;;
51792;SDS011;37850;53.178;6.376;2023-05-10T07:53:43;6.20;;;3.47;;
51792;SDS011;37850;53.178;6.376;2023-05-10T07:56:20;7.38;;;3.70;;
51792;SDS011;37850;53.178;6.376;2023-05-10T07:58:52;6.72;;;3.55;;
51792;SDS011;37850;53.178;6.376;2023-05-10T08:01:21;7.25;;;4.25;;
51792;SDS011;37850;53.178;6.376;2023-05-10T08:03:47;6.05;;;3.97;;
51792;SDS011;37850;53.178;6.376;2023-05-10T08:06:17;7.30;;;3.92;;
51792;SDS011;37850;53.178;6.376;2023-05-10T08:08:47;6.03;;;3.92;;
51792;SDS011;37850;53.178;6.376;2023-05-10T08:11:18;7.95;;;4.15;;
51792;SDS011;37850;53.178;6.376;2023-05-10T08:13:46;6.35;;;3.88;;
51792;SDS011;37850;53.178;6.376;2023-05-10T08:16:18;7.18;;;4.30;;
51792;SDS011;37850;53.178;6.376;2023-05-10T08:18:52;7.90;;;5.30;;
51792;SDS011;37850;53.178;6.376;2023-05-10T08:21:22;9.43;;;5.10;;
51792;SDS011;37850;53.178;6.376;2023-05-10T08:23:48;9.30;;;5.47;;
51792;SDS011;37850;53.178;6.376;2023-05-10T08:26:17;8.70;;;5.53;;
51792;SDS011;37850;53.178;6.376;2023-05-10T08:28:43;8.70;;;5.80;;
51792;SDS011;37850;53.178;6.376;2023-05-10T08:31:09;7.95;;;5.30;;
51792;SDS011;37850;53.178;6.376;2023-05-10T08:33:34;8.63;;;5.43;;
51792;SDS011;37850;53.178;6.376;2023-05-10T08:36:00;9.43;;;5.22;;
51792;SDS011;37850;53.178;6.376;2023-05-10T08:38:26;12.52;;;6.25;;
51792;SDS011;37850;53.178;6.376;2023-05-10T08:40:52;10.68;;;6.80;;
51792;SDS011;37850;53.178;6.376;2023-05-10T08:43:21;10.27;;;5.95;;
51792;SDS011;37850;53.178;6.376;2023-05-10T08:45:51;9.30;;;6.65;;
51792;SDS011;37850;53.178;6.376;2023-05-10T08:48:19;9.05;;;5.95;;
51792;SDS011;37850;53.178;6.376;2023-05-10T08:50:47;11.15;;;7.13;;
51792;SDS011;37850;53.178;6.376;2023-05-10T08:53:13;10.20;;;6.95;;
51792;SDS011;37850;53.178;6.376;2023-05-10T08:55:41;11.10;;;7.05;;
51792;SDS011;37850;53.178;6.376;2023-05-10T08:58:08;11.15;;;7.63;;
51792;SDS011;37850;53.178;6.376;2023-05-10T09:00:35;10.82;;;6.45;;
51792;SDS011;37850;53.178;6.376;2023-05-10T09:03:06;9.98;;;6.20;;
51792;SDS011;37850;53.178;6.376;2023-05-10T09:05:32;10.70;;;5.90;;
51792;SDS011;37850;53.178;6.376;2023-05-10T09:07:58;10.48;;;6.50;;
51792;SDS011;37850;53.178;6.376;2023-05-10T09:10:26;10.10;;;6.53;;
51792;SDS011;37850;53.178;6.376;2023-05-10T09:12:53;12.73;;;6.13;;
51792;SDS011;37850;53.178;6.376;2023-05-10T09:15:20;10.60;;;6.32;;
51792;SDS011;37850;53.178;6.376;2023-05-10T09:17:46;8.70;;;6.22;;
51792;SDS011;37850;53.178;6.376;2023-05-10T09:20:14;9.98;;;6.53;;
51792;SDS011;37850;53.178;6.376;2023-05-10T09:22:42;11.93;;;6.03;;
51792;SDS011;37850;53.178;6.376;2023-05-10T09:25:12;9.38;;;6.10;;
51792;SDS011;37850;53.178;6.376;2023-05-10T09:27:44;10.35;;;6.30;;
51792;SDS011;37850;53.178;6.376;2023-05-10T09:30:15;13.52;;;7.00;;
51792;SDS011;37850;53.178;6.376;2023-05-10T09:32:47;11.65;;;6.70;;
51792;SDS011;37850;53.178;6.376;2023-05-10T09:35:15;9.77;;;6.60;;
51792;SDS011;37850;53.178;6.376;2023-05-10T09:42:42;9.80;;;6.25;;
51792;SDS011;37850;53.178;6.376;2023-05-10T09:45:29;10.65;;;6.38;;
51792;SDS011;37850;53.178;6.376;2023-05-10T09:47:57;10.00;;;5.78;;
51792;SDS011;37850;53.178;6.376;2023-05-10T09:50:24;10.30;;;6.15;;
51792;SDS011;37850;53.178;6.376;2023-05-10T09:55:17;8.55;;;5.25;;
51792;SDS011;37850;53.178;6.376;2023-05-10T09:57:45;8.27;;;5.20;;
51792;SDS011;37850;53.178;6.376;2023-05-10T10:00:16;7.82;;;4.95;;
51792;SDS011;37850;53.178;6.376;2023-05-10T10:02:48;7.43;;;4.68;;
51792;SDS011;37850;53.178;6.376;2023-05-10T10:05:20;8.13;;;5.03;;
51792;SDS011;37850;53.178;6.376;2023-05-10T10:07:52;7.90;;;4.40;;
51792;SDS011;37850;53.178;6.376;2023-05-10T10:10:18;6.97;;;4.03;;
51792;SDS011;37850;53.178;6.376;2023-05-10T10:12:47;10.20;;;4.68;;
51792;SDS011;37850;53.178;6.376;2023-05-10T10:15:13;7.55;;;4.70;;
51792;SDS011;37850;53.178;6.376;2023-05-10T10:17:38;9.50;;;5.40;;
51792;SDS011;37850;53.178;6.376;2023-05-10T10:20:06;7.97;;;5.28;;
51792;SDS011;37850;53.178;6.376;2023-05-10T10:22:32;8.80;;;5.07;;
51792;SDS011;37850;53.178;6.376;2023-05-10T10:24:58;8.82;;;5.13;;
51792;SDS011;37850;53.178;6.376;2023-05-10T10:27:26;7.40;;;4.28;;
51792;SDS011;37850;53.178;6.376;2023-05-10T10:35:52;7.07;;;4.57;;
51792;SDS011;37850;53.178;6.376;2023-05-10T10:38:20;7.97;;;5.00;;
51792;SDS011;37850;53.178;6.376;2023-05-10T10:40:47;7.00;;;4.70;;
51792;SDS011;37850;53.178;6.376;2023-05-10T10:43:25;8.50;;;4.95;;
51792;SDS011;37850;53.178;6.376;2023-05-10T10:48:47;9.05;;;5.60;;
51792;SDS011;37850;53.178;6.376;2023-05-10T10:51:14;8.95;;;5.95;;
51792;SDS011;37850;53.178;6.376;2023-05-10T10:53:40;10.65;;;6.25;;
51792;SDS011;37850;53.178;6.376;2023-05-10T10:56:07;11.25;;;6.88;;
51792;SDS011;37850;53.178;6.376;2023-05-10T10:58:40;10.77;;;6.38;;
51792;SDS011;37850;53.178;6.376;2023-05-10T11:04:16;10.73;;;6.13;;
51792;SDS011;37850;53.178;6.376;2023-05-10T11:06:40;12.15;;;7.35;;
51792;SDS011;37850;53.178;6.376;2023-05-10T11:09:08;11.20;;;6.93;;
51792;SDS011;37850;53.178;6.376;2023-05-10T11:11:36;9.80;;;6.60;;
51792;SDS011;37850;53.178;6.376;2023-05-10T11:14:13;10.98;;;7.55;;
51792;SDS011;37850;53.178;6.376;2023-05-10T11:16:42;11.93;;;6.82;;
51792;SDS011;37850;53.178;6.376;2023-05-10T11:19:10;10.52;;;6.43;;
51792;SDS011;37850;53.178;6.376;2023-05-10T11:24:32;10.82;;;6.80;;
51792;SDS011;37850;53.178;6.376;2023-05-10T11:27:02;9.88;;;6.13;;
51792;SDS011;37850;53.178;6.376;2023-05-10T11:29:28;10.60;;;6.47;;
51792;SDS011;37850;53.178;6.376;2023-05-10T11:32:06;10.00;;;5.75;;
51792;SDS011;37850;53.178;6.376;2023-05-10T11:34:33;11.80;;;6.53;;
51792;SDS011;37850;53.178;6.376;2023-05-10T11:36:59;10.05;;;6.80;;
51792;SDS011;37850;53.178;6.376;2023-05-10T11:39:31;12.60;;;6.80;;
51792;SDS011;37850;53.178;6.376;2023-05-10T11:42:04;11.25;;;6.85;;
51792;SDS011;37850;53.178;6.376;2023-05-10T11:44:35;13.90;;;7.63;;
51792;SDS011;37850;53.178;6.376;2023-05-10T11:49:35;13.18;;;8.15;;
51792;SDS011;37850;53.178;6.376;2023-05-10T11:52:06;15.60;;;8.95;;
51792;SDS011;37850;53.178;6.376;2023-05-10T11:54:37;13.18;;;7.30;;
51792;SDS011;37850;53.178;6.376;2023-05-10T11:57:03;11.95;;;7.50;;
51792;SDS011;37850;53.178;6.376;2023-05-10T11:59:29;14.40;;;7.53;;
51792;SDS011;37850;53.178;6.376;2023-05-10T12:02:05;17.10;;;8.05;;
51792;SDS011;37850;53.178;6.376;2023-05-10T12:04:31;12.43;;;7.75;;
51792;SDS011;37850;53.178;6.376;2023-05-10T12:06:57;11.95;;;7.50;;
51792;SDS011;37850;53.178;6.376;2023-05-10T12:09:23;14.18;;;7.20;;
51792;SDS011;37850;53.178;6.376;2023-05-10T12:12:04;12.10;;;7.65;;
51792;SDS011;37850;53.178;6.376;2023-05-10T12:14:33;15.55;;;7.47;;
51792;SDS011;37850;53.178;6.376;2023-05-10T12:17:00;12.55;;;7.30;;
51792;SDS011;37850;53.178;6.376;2023-05-10T12:19:26;15.15;;;7.63;;
51792;SDS011;37850;53.178;6.376;2023-05-10T12:21:52;10.73;;;6.80;;
51792;SDS011;37850;53.178;6.376;2023-05-10T12:24:18;10.82;;;6.63;;
51792;SDS011;37850;53.178;6.376;2023-05-10T12:26:47;14.43;;;6.63;;
51792;SDS011;37850;53.178;6.376;2023-05-10T12:29:17;11.85;;;6.82;;
51792;SDS011;37850;53.178;6.376;2023-05-10T12:31:51;10.60;;;7.40;;
51792;SDS011;37850;53.178;6.376;2023-05-10T12:34:31;12.95;;;7.18;;
51792;SDS011;37850;53.178;6.376;2023-05-10T12:36:59;10.25;;;6.53;;
51792;SDS011;37850;53.178;6.376;2023-05-10T12:39:25;11.98;;;6.45;;
51792;SDS011;37850;53.178;6.376;2023-05-10T12:41:51;10.40;;;6.20;;
51792;SDS011;37850;53.178;6.376;2023-05-10T12:44:17;10.00;;;6.57;;
51792;SDS011;37850;53.178;6.376;2023-05-10T12:46:46;13.30;;;7.05;;
51792;SDS011;37850;53.178;6.376;2023-05-10T12:49:13;12.90;;;7.28;;
51792;SDS011;37850;53.178;6.376;2023-05-10T12:51:38;14.23;;;7.57;;
51792;SDS011;37850;53.178;6.376;2023-05-10T12:54:04;11.98;;;7.25;;
51792;SDS011;37850;53.178;6.376;2023-05-10T12:56:30;10.65;;;7.03;;
51792;SDS011;37850;53.178;6.376;2023-05-10T12:58:55;13.70;;;7.47;;
51792;SDS011;37850;53.178;6.376;2023-05-10T13:01:21;11.90;;;7.00;;
51792;SDS011;37850;53.178;6.376;2023-05-10T13:03:47;10.63;;;7.00;;
51792;SDS011;37850;53.178;6.376;2023-05-10T13:06:13;12.18;;;6.70;;
51792;SDS011;37850;53.178;6.376;2023-05-10T13:08:38;10.88;;;6.80;;
51792;SDS011;37850;53.178;6.376;2023-05-10T13:11:05;10.80;;;6.93;;
51792;SDS011;37850;53.178;6.376;2023-05-10T13:13:31;11.90;;;7.10;;
51792;SDS011;37850;53.178;6.376;2023-05-10T13:15:57;9.45;;;5.85;;
51792;SDS011;37850;53.178;6.376;2023-05-10T13:18:22;12.05;;;5.88;;
51792;SDS011;37850;53.178;6.376;2023-05-10T13:20:49;11.77;;;5.95;;
51792;SDS011;37850;53.178;6.376;2023-05-10T13:23:15;10.02;;;6.20;;
51792;SDS011;37850;53.178;6.376;2023-05-10T13:25:41;10.00;;;5.40;;
51792;SDS011;37850;53.178;6.376;2023-05-10T13:28:07;9.45;;;5.60;;
51792;SDS011;37850;53.178;6.376;2023-05-10T13:30:32;12.15;;;5.88;;
51792;SDS011;37850;53.178;6.376;2023-05-10T13:32:58;11.95;;;6.55;;
51792;SDS011;37850;53.178;6.376;2023-05-10T13:35:29;9.20;;;5.90;;
51792;SDS011;37850;53.178;6.376;2023-05-10T13:38:02;7.90;;;4.90;;
51792;SDS011;37850;53.178;6.376;2023-05-10T13:40:34;10.63;;;6.05;;
51792;SDS011;37850;53.178;6.376;2023-05-10T13:43:01;10.63;;;6.75;;
51792;SDS011;37850;53.178;6.376;2023-05-10T13:45:27;10.90;;;7.32;;
51792;SDS011;37850;53.178;6.376;2023-05-10T13:47:52;12.48;;;7.03;;
51792;SDS011;37850;53.178;6.376;2023-05-10T13:50:18;10.77;;;6.60;;
51792;SDS011;37850;53.178;6.376;2023-05-10T13:52:44;12.45;;;7.32;;
51792;SDS011;37850;53.178;6.376;2023-05-10T13:55:10;11.13;;;6.90;;
51792;SDS011;37850;53.178;6.376;2023-05-10T13:57:38;9.63;;;6.45;;
51792;SDS011;37850;53.178;6.376;2023-05-10T14:00:04;9.10;;;6.10;;
51792;SDS011;37850;53.178;6.376;2023-05-10T14:02:30;9.75;;;6.30;;
51792;SDS011;37850;53.178;6.376;2023-05-10T14:04:56;10.63;;;6.63;;
51792;SDS011;37850;53.178;6.376;2023-05-10T14:07:22;12.10;;;7.57;;
51792;SDS011;37850;53.178;6.376;2023-05-10T14:09:47;13.68;;;7.60;;
51792;SDS011;37850;53.178;6.376;2023-05-10T14:12:13;12.30;;;8.57;;
51792;SDS011;37850;53.178;6.376;2023-05-10T14:14:39;12.63;;;8.10;;
51792;SDS011;37850;53.178;6.376;2023-05-10T14:17:05;12.57;;;8.15;;
51792;SDS011;37850;53.178;6.376;2023-05-10T14:19:31;13.52;;;8.60;;
51792;SDS011;37850;53.178;6.376;2023-05-10T14:21:59;12.40;;;7.95;;
51792;SDS011;37850;53.178;6.376;2023-05-10T14:24:24;14.63;;;8.60;;
51792;SDS011;37850;53.178;6.376;2023-05-10T14:26:50;12.25;;;8.13;;
51792;SDS011;37850;53.178;6.376;2023-05-10T14:29:18;13.63;;;7.57;;
51792;SDS011;37850;53.178;6.376;2023-05-10T14:31:45;17.00;;;8.70;;
51792;SDS011;37850;53.178;6.376;2023-05-10T14:34:10;11.25;;;7.47;;
51792;SDS011;37850;53.178;6.376;2023-05-10T14:36:36;13.90;;;7.50;;
51792;SDS011;37850;53.178;6.376;2023-05-10T14:39:02;12.45;;;7.82;;
51792;SDS011;37850;53.178;6.376;2023-05-10T14:41:28;13.35;;;7.78;;
51792;SDS011;37850;53.178;6.376;2023-05-10T14:43:55;10.75;;;6.88;;
51792;SDS011;37850;53.178;6.376;2023-05-10T14:46:21;12.52;;;7.10;;
51792;SDS011;37850;53.178;6.376;2023-05-10T14:48:46;11.57;;;7.10;;
51792;SDS011;37850;53.178;6.376;2023-05-10T14:51:12;11.45;;;6.68;;
51792;SDS011;37850;53.178;6.376;2023-05-10T14:53:38;14.23;;;8.40;;
51792;SDS011;37850;53.178;6.376;2023-05-10T14:56:04;13.15;;;7.80;;
51792;SDS011;37850;53.178;6.376;2023-05-10T14:58:30;12.45;;;8.00;;
51792;SDS011;37850;53.178;6.376;2023-05-10T15:00:56;12.40;;;8.50;;
51792;SDS011;37850;53.178;6.376;2023-05-10T15:03:22;13.80;;;9.05;;
51792;SDS011;37850;53.178;6.376;2023-05-10T15:05:48;13.50;;;9.23;;
51792;SDS011;37850;53.178;6.376;2023-05-10T15:08:13;12.45;;;8.13;;
51792;SDS011;37850;53.178;6.376;2023-05-10T15:10:39;13.48;;;7.90;;
51792;SDS011;37850;53.178;6.376;2023-05-10T15:13:05;12.07;;;7.80;;
51792;SDS011;37850;53.178;6.376;2023-05-10T15:15:31;11.25;;;7.28;;
51792;SDS011;37850;53.178;6.376;2023-05-10T15:17:57;11.32;;;7.18;;
51792;SDS011;37850;53.178;6.376;2023-05-10T15:20:22;11.75;;;6.45;;
51792;SDS011;37850;53.178;6.376;2023-05-10T15:22:48;13.18;;;6.63;;
51792;SDS011;37850;53.178;6.376;2023-05-10T15:25:17;11.50;;;6.07;;
51792;SDS011;37850;53.178;6.376;2023-05-10T15:27:43;11.55;;;6.28;;